sensor_id;sensor_type;location;lat;lon;timestamp;P1;durP1;ratioP1;P2;durP2;ratioP2
57339;SDS011;43174;50.930;18.170;2022-08-20T00:00:47;7.50;;;5.50;;
57339;SDS011;43174;50.930;18.170;2022-08-20T00:05:41;6.30;;;5.10;;
57339;SDS011;43174;50.930;18.170;2022-08-20T00:08:07;8.40;;;5.90;;
57339;SDS011;43174;50.930;18.170;2022-08-20T00:10:34;11.50;;;5.80;;
57339;SDS011;43174;50.930;18.170;2022-08-20T00:13:00;8.20;;;6.00;;
57339;SDS011;43174;50.930;18.170;2022-08-20T00:15:27;7.40;;;5.30;;
57339;SDS011;43174;50.930;18.170;2022-08-20T00:17:54;11.00;;;5.60;;
57339;SDS011;43174;50.930;18.170;2022-08-20T00:20:21;8.10;;;5.20;;
57339;SDS011;43174;50.930;18.170;2022-08-20T00:22:47;9.40;;;6.00;;
57339;SDS011;43174;50.930;18.170;2022-08-20T00:25:13;6.80;;;6.00;;
57339;SDS011;43174;50.930;18.170;2022-08-20T00:27:39;8.00;;;5.90;;
57339;SDS011;43174;50.930;18.170;2022-08-20T00:30:05;6.80;;;5.50;;
57339;SDS011;43174;50.930;18.170;2022-08-20T00:32:34;12.70;;;5.70;;
57339;SDS011;43174;50.930;18.170;2022-08-20T00:35:06;6.80;;;5.90;;
57339;SDS011;43174;50.930;18.170;2022-08-20T00:37:32;12.60;;;6.10;;
57339;SDS011;43174;50.930;18.170;2022-08-20T00:39:58;9.40;;;6.00;;
57339;SDS011;43174;50.930;18.170;2022-08-20T00:42:23;6.20;;;5.60;;
57339;SDS011;43174;50.930;18.170;2022-08-20T00:44:49;11.00;;;5.80;;
57339;SDS011;43174;50.930;18.170;2022-08-20T00:47:15;7.90;;;5.90;;
57339;SDS011;43174;50.930;18.170;2022-08-20T00:49:40;8.40;;;6.00;;
57339;SDS011;43174;50.930;18.170;2022-08-20T00:56:59;8.40;;;5.80;;
57339;SDS011;43174;50.930;18.170;2022-08-20T00:59:29;7.70;;;6.10;;
57339;SDS011;43174;50.930;18.170;2022-08-20T01:01:56;7.40;;;5.90;;
57339;SDS011;43174;50.930;18.170;2022-08-20T01:04:29;8.30;;;6.20;;
57339;SDS011;43174;50.930;18.170;2022-08-20T01:06:55;7.00;;;6.30;;
57339;SDS011;43174;50.930;18.170;2022-08-20T01:09:21;10.70;;;6.30;;
57339;SDS011;43174;50.930;18.170;2022-08-20T01:11:47;13.20;;;6.40;;
57339;SDS011;43174;50.930;18.170;2022-08-20T01:14:12;11.30;;;6.20;;
57339;SDS011;43174;50.930;18.170;2022-08-20T01:17:13;7.20;;;5.80;;
57339;SDS011;43174;50.930;18.170;2022-08-20T01:19:50;9.30;;;6.50;;
57339;SDS011;43174;50.930;18.170;2022-08-20T01:22:19;10.20;;;7.30;;
57339;SDS011;43174;50.930;18.170;2022-08-20T01:25:09;9.00;;;6.30;;
57339;SDS011;43174;50.930;18.170;2022-08-20T01:27:37;10.70;;;6.70;;
57339;SDS011;43174;50.930;18.170;2022-08-20T01:30:03;7.40;;;5.80;;
57339;SDS011;43174;50.930;18.170;2022-08-20T01:32:29;10.10;;;6.40;;
57339;SDS011;43174;50.930;18.170;2022-08-20T01:34:54;7.50;;;6.10;;
57339;SDS011;43174;50.930;18.170;2022-08-20T01:37:20;7.80;;;5.70;;
57339;SDS011;43174;50.930;18.170;2022-08-20T01:39:45;9.20;;;5.90;;
57339;SDS011;43174;50.930;18.170;2022-08-20T01:42:13;10.30;;;5.70;;
57339;SDS011;43174;50.930;18.170;2022-08-20T01:44:43;9.20;;;5.00;;
57339;SDS011;43174;50.930;18.170;2022-08-20T01:49:34;7.20;;;5.80;;
57339;SDS011;43174;50.930;18.170;2022-08-20T01:52:01;10.00;;;5.50;;
57339;SDS011;43174;50.930;18.170;2022-08-20T01:54:29;8.50;;;5.20;;
57339;SDS011;43174;50.930;18.170;2022-08-20T01:56:58;6.50;;;5.30;;
57339;SDS011;43174;50.930;18.170;2022-08-20T01:59:24;8.30;;;5.40;;
57339;SDS011;43174;50.930;18.170;2022-08-20T02:01:50;7.20;;;5.00;;
57339;SDS011;43174;50.930;18.170;2022-08-20T02:04:16;7.50;;;5.00;;
57339;SDS011;43174;50.930;18.170;2022-08-20T02:06:44;9.50;;;5.00;;
57339;SDS011;43174;50.930;18.170;2022-08-20T02:09:10;11.80;;;5.30;;
57339;SDS011;43174;50.930;18.170;2022-08-20T02:11:36;6.90;;;5.20;;
57339;SDS011;43174;50.930;18.170;2022-08-20T02:14:04;8.60;;;5.60;;
57339;SDS011;43174;50.930;18.170;2022-08-20T02:16:31;7.60;;;5.50;;
57339;SDS011;43174;50.930;18.170;2022-08-20T02:19:03;8.30;;;5.50;;
57339;SDS011;43174;50.930;18.170;2022-08-20T02:21:33;9.40;;;5.60;;
57339;SDS011;43174;50.930;18.170;2022-08-20T02:24:00;7.90;;;5.30;;
57339;SDS011;43174;50.930;18.170;2022-08-20T02:26:26;9.50;;;5.60;;
57339;SDS011;43174;50.930;18.170;2022-08-20T02:28:52;6.80;;;5.60;;
57339;SDS011;43174;50.930;18.170;2022-08-20T02:31:19;6.40;;;5.60;;
57339;SDS011;43174;50.930;18.170;2022-08-20T02:33:45;9.10;;;5.70;;
57339;SDS011;43174;50.930;18.170;2022-08-20T02:36:11;7.00;;;5.50;;
57339;SDS011;43174;50.930;18.170;2022-08-20T02:38:38;6.50;;;5.80;;
57339;SDS011;43174;50.930;18.170;2022-08-20T02:41:04;8.20;;;5.80;;
57339;SDS011;43174;50.930;18.170;2022-08-20T02:43:30;7.10;;;5.70;;
57339;SDS011;43174;50.930;18.170;2022-08-20T02:45:56;7.90;;;5.90;;
57339;SDS011;43174;50.930;18.170;2022-08-20T02:48:22;9.00;;;6.10;;
57339;SDS011;43174;50.930;18.170;2022-08-20T02:50:49;8.30;;;5.80;;
57339;SDS011;43174;50.930;18.170;2022-08-20T02:53:15;7.40;;;6.40;;
57339;SDS011;43174;50.930;18.170;2022-08-20T02:55:41;8.40;;;5.80;;
57339;SDS011;43174;50.930;18.170;2022-08-20T02:58:06;9.20;;;6.30;;
57339;SDS011;43174;50.930;18.170;2022-08-20T03:00:32;7.30;;;6.30;;
57339;SDS011;43174;50.930;18.170;2022-08-20T03:02:59;9.10;;;5.90;;
57339;SDS011;43174;50.930;18.170;2022-08-20T03:05:25;7.40;;;6.20;;
57339;SDS011;43174;50.930;18.170;2022-08-20T03:07:51;8.90;;;6.50;;
57339;SDS011;43174;50.930;18.170;2022-08-20T03:10:25;8.50;;;6.60;;
57339;SDS011;43174;50.930;18.170;2022-08-20T03:12:51;7.30;;;6.20;;
57339;SDS011;43174;50.930;18.170;2022-08-20T03:15:17;7.70;;;6.30;;
57339;SDS011;43174;50.930;18.170;2022-08-20T03:17:43;12.60;;;7.20;;
57339;SDS011;43174;50.930;18.170;2022-08-20T03:20:09;7.50;;;6.70;;
57339;SDS011;43174;50.930;18.170;2022-08-20T03:22:35;9.10;;;6.80;;
57339;SDS011;43174;50.930;18.170;2022-08-20T03:25:01;7.60;;;6.80;;
57339;SDS011;43174;50.930;18.170;2022-08-20T03:27:26;9.90;;;7.00;;
57339;SDS011;43174;50.930;18.170;2022-08-20T03:29:52;9.40;;;7.40;;
57339;SDS011;43174;50.930;18.170;2022-08-20T03:32:17;9.80;;;7.30;;
57339;SDS011;43174;50.930;18.170;2022-08-20T03:34:43;8.90;;;7.40;;
57339;SDS011;43174;50.930;18.170;2022-08-20T03:37:08;10.00;;;6.60;;
57339;SDS011;43174;50.930;18.170;2022-08-20T03:39:36;9.10;;;7.30;;
57339;SDS011;43174;50.930;18.170;2022-08-20T03:42:01;10.10;;;7.60;;
57339;SDS011;43174;50.930;18.170;2022-08-20T03:44:27;10.50;;;7.50;;
57339;SDS011;43174;50.930;18.170;2022-08-20T03:46:52;9.30;;;7.30;;
57339;SDS011;43174;50.930;18.170;2022-08-20T03:49:18;11.80;;;7.50;;
57339;SDS011;43174;50.930;18.170;2022-08-20T03:51:44;8.30;;;7.40;;
57339;SDS011;43174;50.930;18.170;2022-08-20T03:54:09;8.90;;;8.00;;
57339;SDS011;43174;50.930;18.170;2022-08-20T03:56:35;10.00;;;8.40;;
57339;SDS011;43174;50.930;18.170;2022-08-20T03:59:00;8.80;;;7.90;;
57339;SDS011;43174;50.930;18.170;2022-08-20T04:01:26;11.10;;;7.90;;
57339;SDS011;43174;50.930;18.170;2022-08-20T04:03:52;11.00;;;8.10;;
57339;SDS011;43174;50.930;18.170;2022-08-20T04:06:18;13.60;;;8.60;;
57339;SDS011;43174;50.930;18.170;2022-08-20T04:08:44;12.70;;;9.00;;
57339;SDS011;43174;50.930;18.170;2022-08-20T04:11:10;12.10;;;8.90;;
57339;SDS011;43174;50.930;18.170;2022-08-20T04:13:35;13.70;;;9.30;;
57339;SDS011;43174;50.930;18.170;2022-08-20T04:16:01;18.00;;;9.50;;
57339;SDS011;43174;50.930;18.170;2022-08-20T04:18:28;13.20;;;9.40;;
57339;SDS011;43174;50.930;18.170;2022-08-20T04:20:53;10.00;;;9.20;;
57339;SDS011;43174;50.930;18.170;2022-08-20T04:23:20;12.80;;;9.30;;
57339;SDS011;43174;50.930;18.170;2022-08-20T04:25:46;10.40;;;8.90;;
57339;SDS011;43174;50.930;18.170;2022-08-20T04:28:16;10.60;;;9.70;;
57339;SDS011;43174;50.930;18.170;2022-08-20T04:30:49;13.50;;;10.00;;
57339;SDS011;43174;50.930;18.170;2022-08-20T04:33:16;13.80;;;10.10;;
57339;SDS011;43174;50.930;18.170;2022-08-20T04:35:42;11.40;;;10.10;;
57339;SDS011;43174;50.930;18.170;2022-08-20T04:38:08;11.50;;;10.30;;
57339;SDS011;43174;50.930;18.170;2022-08-20T04:40:34;11.10;;;10.00;;
57339;SDS011;43174;50.930;18.170;2022-08-20T04:43:26;16.60;;;10.80;;
57339;SDS011;43174;50.930;18.170;2022-08-20T04:45:53;11.00;;;9.90;;
57339;SDS011;43174;50.930;18.170;2022-08-20T04:48:19;13.40;;;10.00;;
57339;SDS011;43174;50.930;18.170;2022-08-20T04:50:48;11.00;;;10.00;;
57339;SDS011;43174;50.930;18.170;2022-08-20T04:53:15;11.70;;;9.70;;
57339;SDS011;43174;50.930;18.170;2022-08-20T04:55:42;11.50;;;9.70;;
57339;SDS011;43174;50.930;18.170;2022-08-20T04:58:10;12.20;;;10.30;;
57339;SDS011;43174;50.930;18.170;2022-08-20T05:00:36;11.20;;;9.90;;
57339;SDS011;43174;50.930;18.170;2022-08-20T05:03:02;14.00;;;10.10;;
57339;SDS011;43174;50.930;18.170;2022-08-20T05:05:28;11.00;;;9.80;;
57339;SDS011;43174;50.930;18.170;2022-08-20T05:07:55;10.60;;;9.60;;
57339;SDS011;43174;50.930;18.170;2022-08-20T05:10:22;13.50;;;10.30;;
57339;SDS011;43174;50.930;18.170;2022-08-20T05:12:48;13.40;;;10.60;;
57339;SDS011;43174;50.930;18.170;2022-08-20T05:15:14;12.20;;;10.20;;
57339;SDS011;43174;50.930;18.170;2022-08-20T05:17:40;13.90;;;10.40;;
57339;SDS011;43174;50.930;18.170;2022-08-20T05:20:09;11.30;;;10.00;;
57339;SDS011;43174;50.930;18.170;2022-08-20T05:22:35;11.60;;;9.50;;
57339;SDS011;43174;50.930;18.170;2022-08-20T05:25:01;15.40;;;9.90;;
57339;SDS011;43174;50.930;18.170;2022-08-20T05:27:28;13.60;;;9.10;;
57339;SDS011;43174;50.930;18.170;2022-08-20T05:29:58;16.20;;;10.00;;
57339;SDS011;43174;50.930;18.170;2022-08-20T05:32:25;14.40;;;10.20;;
57339;SDS011;43174;50.930;18.170;2022-08-20T05:34:51;14.20;;;9.90;;
57339;SDS011;43174;50.930;18.170;2022-08-20T05:37:16;13.90;;;9.50;;
57339;SDS011;43174;50.930;18.170;2022-08-20T05:39:42;12.40;;;9.90;;
57339;SDS011;43174;50.930;18.170;2022-08-20T05:42:08;14.00;;;10.00;;
57339;SDS011;43174;50.930;18.170;2022-08-20T05:44:35;11.60;;;9.70;;
57339;SDS011;43174;50.930;18.170;2022-08-20T05:47:02;11.30;;;10.20;;
57339;SDS011;43174;50.930;18.170;2022-08-20T05:49:29;11.30;;;9.80;;
57339;SDS011;43174;50.930;18.170;2022-08-20T05:51:55;12.20;;;9.30;;
57339;SDS011;43174;50.930;18.170;2022-08-20T05:54:20;13.10;;;9.30;;
57339;SDS011;43174;50.930;18.170;2022-08-20T05:56:46;13.20;;;9.50;;
57339;SDS011;43174;50.930;18.170;2022-08-20T05:59:12;10.80;;;9.60;;
57339;SDS011;43174;50.930;18.170;2022-08-20T06:01:39;12.70;;;9.40;;
57339;SDS011;43174;50.930;18.170;2022-08-20T06:04:05;11.20;;;10.00;;
57339;SDS011;43174;50.930;18.170;2022-08-20T06:06:53;9.50;;;8.60;;
57339;SDS011;43174;50.930;18.170;2022-08-20T06:09:20;11.60;;;9.60;;
57339;SDS011;43174;50.930;18.170;2022-08-20T06:11:46;13.10;;;9.60;;
57339;SDS011;43174;50.930;18.170;2022-08-20T06:14:11;14.30;;;9.60;;
57339;SDS011;43174;50.930;18.170;2022-08-20T06:16:37;10.00;;;8.60;;
57339;SDS011;43174;50.930;18.170;2022-08-20T06:19:03;11.40;;;9.90;;
57339;SDS011;43174;50.930;18.170;2022-08-20T06:21:29;12.90;;;9.70;;
57339;SDS011;43174;50.930;18.170;2022-08-20T06:23:54;14.90;;;10.00;;
57339;SDS011;43174;50.930;18.170;2022-08-20T06:26:20;12.70;;;9.70;;
57339;SDS011;43174;50.930;18.170;2022-08-20T06:28:45;13.60;;;9.40;;
57339;SDS011;43174;50.930;18.170;2022-08-20T06:31:10;14.10;;;10.40;;
57339;SDS011;43174;50.930;18.170;2022-08-20T06:33:37;13.40;;;10.10;;
57339;SDS011;43174;50.930;18.170;2022-08-20T06:36:02;16.10;;;9.50;;
57339;SDS011;43174;50.930;18.170;2022-08-20T06:38:28;14.40;;;9.70;;
57339;SDS011;43174;50.930;18.170;2022-08-20T06:40:54;13.80;;;9.80;;
57339;SDS011;43174;50.930;18.170;2022-08-20T06:43:19;10.60;;;9.60;;
57339;SDS011;43174;50.930;18.170;2022-08-20T06:45:46;11.70;;;10.50;;
57339;SDS011;43174;50.930;18.170;2022-08-20T06:48:13;11.30;;;9.70;;
57339;SDS011;43174;50.930;18.170;2022-08-20T06:50:40;11.20;;;9.90;;
57339;SDS011;43174;50.930;18.170;2022-08-20T06:53:07;12.10;;;9.70;;
57339;SDS011;43174;50.930;18.170;2022-08-20T06:55:35;10.10;;;9.20;;
57339;SDS011;43174;50.930;18.170;2022-08-20T06:58:02;12.90;;;10.10;;
57339;SDS011;43174;50.930;18.170;2022-08-20T07:00:29;11.40;;;9.70;;
57339;SDS011;43174;50.930;18.170;2022-08-20T07:02:57;11.30;;;9.70;;
57339;SDS011;43174;50.930;18.170;2022-08-20T07:05:24;11.60;;;10.00;;
57339;SDS011;43174;50.930;18.170;2022-08-20T07:07:51;12.60;;;10.10;;
57339;SDS011;43174;50.930;18.170;2022-08-20T07:10:17;13.20;;;10.70;;
57339;SDS011;43174;50.930;18.170;2022-08-20T07:12:43;11.80;;;9.80;;
57339;SDS011;43174;50.930;18.170;2022-08-20T07:15:11;12.10;;;10.20;;
57339;SDS011;43174;50.930;18.170;2022-08-20T07:17:37;11.80;;;10.00;;
57339;SDS011;43174;50.930;18.170;2022-08-20T07:20:03;13.00;;;10.70;;
57339;SDS011;43174;50.930;18.170;2022-08-20T07:22:29;12.20;;;10.60;;
57339;SDS011;43174;50.930;18.170;2022-08-20T07:24:55;14.30;;;10.50;;
57339;SDS011;43174;50.930;18.170;2022-08-20T07:27:21;11.70;;;10.30;;
57339;SDS011;43174;50.930;18.170;2022-08-20T07:29:47;12.50;;;10.50;;
57339;SDS011;43174;50.930;18.170;2022-08-20T07:32:31;12.20;;;10.80;;
57339;SDS011;43174;50.930;18.170;2022-08-20T07:35:05;12.90;;;11.50;;
57339;SDS011;43174;50.930;18.170;2022-08-20T07:37:36;12.90;;;11.70;;
57339;SDS011;43174;50.930;18.170;2022-08-20T07:40:02;13.90;;;11.60;;
57339;SDS011;43174;50.930;18.170;2022-08-20T07:42:28;12.80;;;11.60;;
57339;SDS011;43174;50.930;18.170;2022-08-20T07:44:53;13.60;;;12.40;;
57339;SDS011;43174;50.930;18.170;2022-08-20T07:47:19;13.20;;;12.00;;
57339;SDS011;43174;50.930;18.170;2022-08-20T07:49:46;15.20;;;12.80;;
57339;SDS011;43174;50.930;18.170;2022-08-20T07:52:11;14.60;;;13.20;;
57339;SDS011;43174;50.930;18.170;2022-08-20T07:54:37;17.70;;;13.90;;
57339;SDS011;43174;50.930;18.170;2022-08-20T07:57:03;14.50;;;13.10;;
57339;SDS011;43174;50.930;18.170;2022-08-20T07:59:29;14.30;;;13.00;;
57339;SDS011;43174;50.930;18.170;2022-08-20T08:01:55;14.60;;;13.40;;
57339;SDS011;43174;50.930;18.170;2022-08-20T08:04:20;15.00;;;14.00;;
57339;SDS011;43174;50.930;18.170;2022-08-20T08:06:49;15.00;;;13.80;;
57339;SDS011;43174;50.930;18.170;2022-08-20T08:09:15;15.50;;;14.20;;
57339;SDS011;43174;50.930;18.170;2022-08-20T08:11:42;15.70;;;13.60;;
57339;SDS011;43174;50.930;18.170;2022-08-20T08:14:09;14.30;;;13.20;;
57339;SDS011;43174;50.930;18.170;2022-08-20T08:16:36;15.80;;;14.40;;
57339;SDS011;43174;50.930;18.170;2022-08-20T08:19:02;17.10;;;15.60;;
57339;SDS011;43174;50.930;18.170;2022-08-20T08:21:29;16.30;;;14.90;;
57339;SDS011;43174;50.930;18.170;2022-08-20T08:23:55;16.60;;;15.20;;
57339;SDS011;43174;50.930;18.170;2022-08-20T08:26:22;17.20;;;15.70;;
57339;SDS011;43174;50.930;18.170;2022-08-20T08:28:48;17.80;;;15.90;;
57339;SDS011;43174;50.930;18.170;2022-08-20T08:31:14;17.90;;;16.30;;
57339;SDS011;43174;50.930;18.170;2022-08-20T08:33:40;17.00;;;15.40;;
57339;SDS011;43174;50.930;18.170;2022-08-20T08:36:08;18.10;;;16.70;;
57339;SDS011;43174;50.930;18.170;2022-08-20T08:38:35;20.20;;;18.40;;
57339;SDS011;43174;50.930;18.170;2022-08-20T08:43:39;18.90;;;17.00;;
57339;SDS011;43174;50.930;18.170;2022-08-20T08:46:08;19.20;;;17.70;;
57339;SDS011;43174;50.930;18.170;2022-08-20T08:48:35;19.50;;;17.60;;
57339;SDS011;43174;50.930;18.170;2022-08-20T08:51:03;19.50;;;17.70;;
57339;SDS011;43174;50.930;18.170;2022-08-20T08:53:33;21.80;;;19.70;;
57339;SDS011;43174;50.930;18.170;2022-08-20T08:56:01;24.40;;;22.10;;
57339;SDS011;43174;50.930;18.170;2022-08-20T08:58:26;26.90;;;24.10;;
57339;SDS011;43174;50.930;18.170;2022-08-20T09:00:52;23.90;;;21.60;;
57339;SDS011;43174;50.930;18.170;2022-08-20T09:03:26;24.70;;;22.70;;
57339;SDS011;43174;50.930;18.170;2022-08-20T09:05:54;27.30;;;24.50;;
57339;SDS011;43174;50.930;18.170;2022-08-20T09:08:25;27.70;;;25.00;;
57339;SDS011;43174;50.930;18.170;2022-08-20T09:10:52;26.70;;;24.10;;
57339;SDS011;43174;50.930;18.170;2022-08-20T09:13:17;26.80;;;24.40;;
57339;SDS011;43174;50.930;18.170;2022-08-20T09:15:43;28.90;;;26.70;;
57339;SDS011;43174;50.930;18.170;2022-08-20T09:18:09;28.30;;;25.60;;
57339;SDS011;43174;50.930;18.170;2022-08-20T09:20:34;28.10;;;25.60;;
57339;SDS011;43174;50.930;18.170;2022-08-20T09:23:00;27.90;;;25.30;;
57339;SDS011;43174;50.930;18.170;2022-08-20T09:25:26;30.30;;;27.40;;
57339;SDS011;43174;50.930;18.170;2022-08-20T09:27:51;31.40;;;28.40;;
57339;SDS011;43174;50.930;18.170;2022-08-20T09:30:17;30.80;;;28.10;;
57339;SDS011;43174;50.930;18.170;2022-08-20T09:32:43;31.20;;;27.90;;
57339;SDS011;43174;50.930;18.170;2022-08-20T09:35:09;32.60;;;29.80;;
57339;SDS011;43174;50.930;18.170;2022-08-20T09:37:34;50.60;;;46.30;;
57339;SDS011;43174;50.930;18.170;2022-08-20T09:40:00;34.00;;;30.90;;
57339;SDS011;43174;50.930;18.170;2022-08-20T09:42:27;37.30;;;33.60;;
57339;SDS011;43174;50.930;18.170;2022-08-20T09:44:53;50.70;;;44.70;;
57339;SDS011;43174;50.930;18.170;2022-08-20T09:47:19;48.10;;;43.90;;
57339;SDS011;43174;50.930;18.170;2022-08-20T09:49:46;37.90;;;34.50;;
57339;SDS011;43174;50.930;18.170;2022-08-20T09:54:46;42.70;;;38.30;;
57339;SDS011;43174;50.930;18.170;2022-08-20T09:57:12;44.50;;;40.40;;
57339;SDS011;43174;50.930;18.170;2022-08-20T09:59:38;40.40;;;36.90;;
57339;SDS011;43174;50.930;18.170;2022-08-20T10:02:04;42.60;;;38.50;;
57339;SDS011;43174;50.930;18.170;2022-08-20T10:04:31;46.70;;;41.90;;
57339;SDS011;43174;50.930;18.170;2022-08-20T10:06:56;51.50;;;46.10;;
57339;SDS011;43174;50.930;18.170;2022-08-20T10:09:22;40.20;;;36.50;;
57339;SDS011;43174;50.930;18.170;2022-08-20T10:11:47;41.00;;;37.30;;
57339;SDS011;43174;50.930;18.170;2022-08-20T10:14:13;39.10;;;35.40;;
57339;SDS011;43174;50.930;18.170;2022-08-20T10:16:38;37.10;;;33.70;;
57339;SDS011;43174;50.930;18.170;2022-08-20T10:19:04;36.40;;;33.40;;
57339;SDS011;43174;50.930;18.170;2022-08-20T10:21:30;36.90;;;33.30;;
57339;SDS011;43174;50.930;18.170;2022-08-20T10:23:56;39.90;;;35.90;;
57339;SDS011;43174;50.930;18.170;2022-08-20T10:26:22;40.70;;;36.70;;
57339;SDS011;43174;50.930;18.170;2022-08-20T10:28:48;36.20;;;33.00;;
57339;SDS011;43174;50.930;18.170;2022-08-20T10:31:14;32.90;;;30.20;;
57339;SDS011;43174;50.930;18.170;2022-08-20T10:33:40;34.70;;;31.10;;
57339;SDS011;43174;50.930;18.170;2022-08-20T10:36:06;32.90;;;29.70;;
57339;SDS011;43174;50.930;18.170;2022-08-20T10:38:31;32.00;;;29.30;;
57339;SDS011;43174;50.930;18.170;2022-08-20T10:40:57;39.40;;;35.40;;
57339;SDS011;43174;50.930;18.170;2022-08-20T10:43:22;28.90;;;26.50;;
57339;SDS011;43174;50.930;18.170;2022-08-20T10:45:49;30.60;;;27.90;;
57339;SDS011;43174;50.930;18.170;2022-08-20T10:48:14;31.30;;;28.50;;
57339;SDS011;43174;50.930;18.170;2022-08-20T10:50:40;31.50;;;28.60;;
57339;SDS011;43174;50.930;18.170;2022-08-20T10:53:05;30.00;;;27.60;;
57339;SDS011;43174;50.930;18.170;2022-08-20T10:55:31;29.80;;;27.20;;
57339;SDS011;43174;50.930;18.170;2022-08-20T10:57:56;29.20;;;26.50;;
57339;SDS011;43174;50.930;18.170;2022-08-20T11:00:22;30.70;;;27.80;;
57339;SDS011;43174;50.930;18.170;2022-08-20T11:02:47;27.60;;;25.40;;
57339;SDS011;43174;50.930;18.170;2022-08-20T11:05:13;26.90;;;24.80;;
57339;SDS011;43174;50.930;18.170;2022-08-20T11:07:40;29.50;;;26.80;;
57339;SDS011;43174;50.930;18.170;2022-08-20T11:10:07;25.90;;;23.90;;
57339;SDS011;43174;50.930;18.170;2022-08-20T11:12:32;23.70;;;21.90;;
57339;SDS011;43174;50.930;18.170;2022-08-20T11:14:58;25.30;;;23.20;;
57339;SDS011;43174;50.930;18.170;2022-08-20T11:17:31;25.30;;;22.90;;
57339;SDS011;43174;50.930;18.170;2022-08-20T11:19:58;25.00;;;22.60;;
57339;SDS011;43174;50.930;18.170;2022-08-20T11:22:24;24.60;;;22.50;;
57339;SDS011;43174;50.930;18.170;2022-08-20T11:24:50;23.00;;;21.10;;
57339;SDS011;43174;50.930;18.170;2022-08-20T11:27:23;23.20;;;21.10;;
57339;SDS011;43174;50.930;18.170;2022-08-20T11:29:49;22.70;;;20.80;;
57339;SDS011;43174;50.930;18.170;2022-08-20T11:32:15;23.10;;;21.00;;
57339;SDS011;43174;50.930;18.170;2022-08-20T11:34:41;21.70;;;20.00;;
57339;SDS011;43174;50.930;18.170;2022-08-20T11:37:07;22.50;;;20.60;;
57339;SDS011;43174;50.930;18.170;2022-08-20T11:39:32;22.30;;;20.30;;
57339;SDS011;43174;50.930;18.170;2022-08-20T11:41:58;20.20;;;18.70;;
57339;SDS011;43174;50.930;18.170;2022-08-20T11:44:23;19.40;;;17.80;;
57339;SDS011;43174;50.930;18.170;2022-08-20T11:46:49;18.20;;;16.70;;
57339;SDS011;43174;50.930;18.170;2022-08-20T11:49:14;20.40;;;18.70;;
57339;SDS011;43174;50.930;18.170;2022-08-20T11:51:39;19.20;;;17.30;;
57339;SDS011;43174;50.930;18.170;2022-08-20T11:54:05;17.00;;;15.50;;
57339;SDS011;43174;50.930;18.170;2022-08-20T11:56:30;17.80;;;16.30;;
57339;SDS011;43174;50.930;18.170;2022-08-20T11:58:56;20.50;;;18.90;;
57339;SDS011;43174;50.930;18.170;2022-08-20T12:01:22;19.60;;;17.90;;
57339;SDS011;43174;50.930;18.170;2022-08-20T12:03:47;21.60;;;19.30;;
57339;SDS011;43174;50.930;18.170;2022-08-20T12:06:13;17.70;;;16.00;;
57339;SDS011;43174;50.930;18.170;2022-08-20T12:08:39;17.10;;;15.80;;
57339;SDS011;43174;50.930;18.170;2022-08-20T12:11:06;26.70;;;24.00;;
57339;SDS011;43174;50.930;18.170;2022-08-20T12:13:34;19.50;;;17.90;;
57339;SDS011;43174;50.930;18.170;2022-08-20T12:16:00;19.70;;;17.50;;
57339;SDS011;43174;50.930;18.170;2022-08-20T12:18:26;19.80;;;18.20;;
57339;SDS011;43174;50.930;18.170;2022-08-20T12:20:51;18.90;;;17.00;;
57339;SDS011;43174;50.930;18.170;2022-08-20T12:23:17;18.40;;;16.60;;
57339;SDS011;43174;50.930;18.170;2022-08-20T12:25:42;20.50;;;16.60;;
57339;SDS011;43174;50.930;18.170;2022-08-20T12:28:09;19.00;;;16.70;;
57339;SDS011;43174;50.930;18.170;2022-08-20T12:30:36;17.00;;;15.80;;
57339;SDS011;43174;50.930;18.170;2022-08-20T12:33:01;16.40;;;15.00;;
57339;SDS011;43174;50.930;18.170;2022-08-20T12:35:27;17.00;;;15.50;;
57339;SDS011;43174;50.930;18.170;2022-08-20T12:37:54;17.60;;;15.90;;
57339;SDS011;43174;50.930;18.170;2022-08-20T12:40:24;18.10;;;16.30;;
57339;SDS011;43174;50.930;18.170;2022-08-20T12:42:51;17.30;;;15.80;;
57339;SDS011;43174;50.930;18.170;2022-08-20T12:45:17;16.80;;;15.40;;
57339;SDS011;43174;50.930;18.170;2022-08-20T12:47:44;17.10;;;15.50;;
57339;SDS011;43174;50.930;18.170;2022-08-20T12:50:12;17.00;;;15.60;;
57339;SDS011;43174;50.930;18.170;2022-08-20T12:52:39;15.60;;;14.40;;
57339;SDS011;43174;50.930;18.170;2022-08-20T12:55:05;15.70;;;14.20;;
57339;SDS011;43174;50.930;18.170;2022-08-20T12:57:32;17.20;;;15.50;;
57339;SDS011;43174;50.930;18.170;2022-08-20T13:00:00;16.00;;;14.60;;
57339;SDS011;43174;50.930;18.170;2022-08-20T13:02:26;18.50;;;15.40;;
57339;SDS011;43174;50.930;18.170;2022-08-20T13:04:52;17.10;;;15.30;;
57339;SDS011;43174;50.930;18.170;2022-08-20T13:07:18;18.50;;;15.10;;
57339;SDS011;43174;50.930;18.170;2022-08-20T13:09:43;15.20;;;13.80;;
57339;SDS011;43174;50.930;18.170;2022-08-20T13:12:09;16.20;;;14.80;;
57339;SDS011;43174;50.930;18.170;2022-08-20T13:14:35;24.80;;;22.60;;
57339;SDS011;43174;50.930;18.170;2022-08-20T13:17:01;15.20;;;14.00;;
57339;SDS011;43174;50.930;18.170;2022-08-20T13:19:27;15.50;;;14.10;;
57339;SDS011;43174;50.930;18.170;2022-08-20T13:21:54;15.10;;;13.60;;
57339;SDS011;43174;50.930;18.170;2022-08-20T13:24:20;17.90;;;16.10;;
57339;SDS011;43174;50.930;18.170;2022-08-20T13:26:46;13.90;;;12.50;;
57339;SDS011;43174;50.930;18.170;2022-08-20T13:29:12;16.60;;;12.90;;
57339;SDS011;43174;50.930;18.170;2022-08-20T13:31:38;113.90;;;101.50;;
57339;SDS011;43174;50.930;18.170;2022-08-20T13:34:04;20.00;;;17.50;;
57339;SDS011;43174;50.930;18.170;2022-08-20T13:36:30;16.50;;;14.80;;
57339;SDS011;43174;50.930;18.170;2022-08-20T13:38:55;16.40;;;13.90;;
57339;SDS011;43174;50.930;18.170;2022-08-20T13:41:21;15.60;;;13.80;;
57339;SDS011;43174;50.930;18.170;2022-08-20T13:43:46;14.40;;;12.80;;
57339;SDS011;43174;50.930;18.170;2022-08-20T13:46:12;13.70;;;12.50;;
57339;SDS011;43174;50.930;18.170;2022-08-20T13:48:37;15.20;;;13.80;;
57339;SDS011;43174;50.930;18.170;2022-08-20T13:51:03;13.70;;;12.60;;
57339;SDS011;43174;50.930;18.170;2022-08-20T13:53:28;13.50;;;12.20;;
57339;SDS011;43174;50.930;18.170;2022-08-20T13:55:54;14.10;;;12.60;;
57339;SDS011;43174;50.930;18.170;2022-08-20T13:58:19;16.90;;;13.20;;
57339;SDS011;43174;50.930;18.170;2022-08-20T14:00:47;15.10;;;13.10;;
57339;SDS011;43174;50.930;18.170;2022-08-20T14:03:13;14.00;;;12.70;;
57339;SDS011;43174;50.930;18.170;2022-08-20T14:05:38;13.90;;;12.60;;
57339;SDS011;43174;50.930;18.170;2022-08-20T14:08:08;13.70;;;12.20;;
57339;SDS011;43174;50.930;18.170;2022-08-20T14:10:34;13.90;;;12.50;;
57339;SDS011;43174;50.930;18.170;2022-08-20T14:13:00;13.70;;;12.40;;
57339;SDS011;43174;50.930;18.170;2022-08-20T14:15:27;15.50;;;13.20;;
57339;SDS011;43174;50.930;18.170;2022-08-20T14:17:54;14.20;;;13.10;;
57339;SDS011;43174;50.930;18.170;2022-08-20T14:20:20;15.40;;;13.90;;
57339;SDS011;43174;50.930;18.170;2022-08-20T14:22:46;13.80;;;12.40;;
57339;SDS011;43174;50.930;18.170;2022-08-20T14:25:12;14.90;;;12.30;;
57339;SDS011;43174;50.930;18.170;2022-08-20T14:27:38;15.20;;;13.50;;